sensor_id;sensor_type;location;lat;lon;timestamp;temperature;humidity
41168;DHT22;26906;45.658;9.272;2023-06-14T05:35:57;20.40;99.90
41168;DHT22;26906;45.658;9.272;2023-06-14T05:38:22;20.50;99.90
41168;DHT22;26906;45.658;9.272;2023-06-14T05:40:48;20.60;99.90
41168;DHT22;26906;45.658;9.272;2023-06-14T05:43:13;20.70;99.90
41168;DHT22;26906;45.658;9.272;2023-06-14T05:45:39;20.80;99.90
41168;DHT22;26906;45.658;9.272;2023-06-14T05:48:05;20.80;99.90
41168;DHT22;26906;45.658;9.272;2023-06-14T05:50:31;20.80;99.90
41168;DHT22;26906;45.658;9.272;2023-06-14T05:52:58;20.80;99.90
41168;DHT22;26906;45.658;9.272;2023-06-14T05:55:23;20.90;99.90
41168;DHT22;26906;45.658;9.272;2023-06-14T05:57:49;20.90;99.90
41168;DHT22;26906;45.658;9.272;2023-06-14T06:00:21;20.90;99.90
41168;DHT22;26906;45.658;9.272;2023-06-14T06:02:50;20.80;99.90
41168;DHT22;26906;45.658;9.272;2023-06-14T06:05:16;20.70;99.90
41168;DHT22;26906;45.658;9.272;2023-06-14T06:07:42;20.80;99.90
41168;DHT22;26906;45.658;9.272;2023-06-14T06:10:09;20.80;99.90
41168;DHT22;26906;45.658;9.272;2023-06-14T06:12:35;20.70;99.90
41168;DHT22;26906;45.658;9.272;2023-06-14T06:15:04;20.70;99.90
41168;DHT22;26906;45.658;9.272;2023-06-14T06:17:30;20.70;99.90
41168;DHT22;26906;45.658;9.272;2023-06-14T06:19:56;20.80;99.90
41168;DHT22;26906;45.658;9.272;2023-06-14T06:22:22;20.90;99.90
41168;DHT22;26906;45.658;9.272;2023-06-14T06:24:47;20.80;99.90
41168;DHT22;26906;45.658;9.272;2023-06-14T06:27:13;20.70;99.90
41168;DHT22;26906;45.658;9.272;2023-06-14T06:29:39;20.70;99.90
41168;DHT22;26906;45.658;9.272;2023-06-14T06:32:05;20.90;99.90
41168;DHT22;26906;45.658;9.272;2023-06-14T06:34:31;20.90;99.90
41168;DHT22;26906;45.658;9.272;2023-06-14T06:36:56;20.90;99.90
41168;DHT22;26906;45.658;9.272;2023-06-14T06:39:22;20.90;99.90
41168;DHT22;26906;45.658;9.272;2023-06-14T06:41:48;21.00;99.90
41168;DHT22;26906;45.658;9.272;2023-06-14T06:44:18;21.20;99.90
41168;DHT22;26906;45.658;9.272;2023-06-14T06:46:48;21.30;99.90
41168;DHT22;26906;45.658;9.272;2023-06-14T06:49:14;21.40;99.90
41168;DHT22;26906;45.658;9.272;2023-06-14T06:51:42;21.60;99.90
41168;DHT22;26906;45.658;9.272;2023-06-14T06:54:09;21.80;99.90
41168;DHT22;26906;45.658;9.272;2023-06-14T06:56:35;22.00;99.90
41168;DHT22;26906;45.658;9.272;2023-06-14T06:59:01;22.00;99.90
41168;DHT22;26906;45.658;9.272;2023-06-14T07:01:27;22.20;99.90
41168;DHT22;26906;45.658;9.272;2023-06-14T07:03:55;22.50;99.90
41168;DHT22;26906;45.658;9.272;2023-06-14T07:06:21;22.60;99.90
41168;DHT22;26906;45.658;9.272;2023-06-14T07:08:46;22.80;99.90
41168;DHT22;26906;45.658;9.272;2023-06-14T07:11:15;23.10;99.90
41168;DHT22;26906;45.658;9.272;2023-06-14T07:13:41;23.50;99.90
41168;DHT22;26906;45.658;9.272;2023-06-14T07:16:06;24.00;99.90
41168;DHT22;26906;45.658;9.272;2023-06-14T07:18:32;24.30;99.90
41168;DHT22;26906;45.658;9.272;2023-06-14T07:20:57;24.70;99.90
41168;DHT22;26906;45.658;9.272;2023-06-14T07:23:23;25.00;99.90
41168;DHT22;26906;45.658;9.272;2023-06-14T07:25:49;25.30;99.90
41168;DHT22;26906;45.658;9.272;2023-06-14T07:28:16;25.70;99.90
41168;DHT22;26906;45.658;9.272;2023-06-14T07:30:43;25.60;99.90
41168;DHT22;26906;45.658;9.272;2023-06-14T07:33:09;25.70;99.90
41168;DHT22;26906;45.658;9.272;2023-06-14T07:35:35;25.90;99.90
41168;DHT22;26906;45.658;9.272;2023-06-14T07:38:01;26.10;99.90
41168;DHT22;26906;45.658;9.272;2023-06-14T07:40:27;26.10;99.90
41168;DHT22;26906;45.658;9.272;2023-06-14T07:42:53;26.00;99.90
41168;DHT22;26906;45.658;9.272;2023-06-14T07:45:20;26.20;99.90
41168;DHT22;26906;45.658;9.272;2023-06-14T07:47:46;26.30;99.90
41168;DHT22;26906;45.658;9.272;2023-06-14T07:50:11;26.50;99.90
41168;DHT22;26906;45.658;9.272;2023-06-14T07:52:39;26.70;99.90
41168;DHT22;26906;45.658;9.272;2023-06-14T07:55:05;27.00;99.90
41168;DHT22;26906;45.658;9.272;2023-06-14T07:57:31;27.10;99.90
41168;DHT22;26906;45.658;9.272;2023-06-14T07:59:56;27.40;99.90
41168;DHT22;26906;45.658;9.272;2023-06-14T08:02:23;27.40;99.90
41168;DHT22;26906;45.658;9.272;2023-06-14T08:04:48;27.60;99.90
41168;DHT22;26906;45.658;9.272;2023-06-14T08:07:14;27.60;99.90
41168;DHT22;26906;45.658;9.272;2023-06-14T08:09:40;27.30;99.90
41168;DHT22;26906;45.658;9.272;2023-06-14T08:12:07;27.40;99.90
41168;DHT22;26906;45.658;9.272;2023-06-14T08:14:35;27.70;99.90
41168;DHT22;26906;45.658;9.272;2023-06-14T08:17:01;28.00;99.90
41168;DHT22;26906;45.658;9.272;2023-06-14T08:19:27;27.80;99.90
41168;DHT22;26906;45.658;9.272;2023-06-14T08:21:53;27.60;99.90
41168;DHT22;26906;45.658;9.272;2023-06-14T08:24:23;27.40;99.90
41168;DHT22;26906;45.658;9.272;2023-06-14T08:26:55;27.60;99.90
41168;DHT22;26906;45.658;9.272;2023-06-14T08:29:22;27.90;99.90
41168;DHT22;26906;45.658;9.272;2023-06-14T08:31:47;28.10;99.90
41168;DHT22;26906;45.658;9.272;2023-06-14T08:34:13;28.00;99.90
41168;DHT22;26906;45.658;9.272;2023-06-14T08:36:39;28.00;99.90
41168;DHT22;26906;45.658;9.272;2023-06-14T08:39:05;28.00;99.90
41168;DHT22;26906;45.658;9.272;2023-06-14T08:41:31;28.10;99.90
41168;DHT22;26906;45.658;9.272;2023-06-14T08:43:57;28.50;99.90
41168;DHT22;26906;45.658;9.272;2023-06-14T08:46:26;28.60;99.90
41168;DHT22;26906;45.658;9.272;2023-06-14T08:48:55;28.60;99.90
41168;DHT22;26906;45.658;9.272;2023-06-14T08:51:25;28.40;99.90
41168;DHT22;26906;45.658;9.272;2023-06-14T08:53:53;28.30;99.90
41168;DHT22;26906;45.658;9.272;2023-06-14T08:56:27;28.50;99.90
41168;DHT22;26906;45.658;9.272;2023-06-14T08:58:57;28.20;99.90
41168;DHT22;26906;45.658;9.272;2023-06-14T09:01:23;28.00;99.90
41168;DHT22;26906;45.658;9.272;2023-06-14T09:03:50;28.20;99.90
41168;DHT22;26906;45.658;9.272;2023-06-14T09:06:16;28.00;99.90
41168;DHT22;26906;45.658;9.272;2023-06-14T09:08:46;28.00;99.90
41168;DHT22;26906;45.658;9.272;2023-06-14T09:11:14;27.50;99.90
41168;DHT22;26906;45.658;9.272;2023-06-14T09:13:40;27.50;99.90
41168;DHT22;26906;45.658;9.272;2023-06-14T09:16:07;27.60;99.90
41168;DHT22;26906;45.658;9.272;2023-06-14T09:18:44;27.50;99.90
41168;DHT22;26906;45.658;9.272;2023-06-14T09:21:14;27.50;99.90
41168;DHT22;26906;45.658;9.272;2023-06-14T09:23:41;27.60;99.90
41168;DHT22;26906;45.658;9.272;2023-06-14T09:28:34;27.50;99.90
41168;DHT22;26906;45.658;9.272;2023-06-14T09:31:01;27.60;99.90
41168;DHT22;26906;45.658;9.272;2023-06-14T09:33:27;27.70;99.90
41168;DHT22;26906;45.658;9.272;2023-06-14T09:35:54;27.70;99.90
41168;DHT22;26906;45.658;9.272;2023-06-14T09:38:20;27.50;99.90
41168;DHT22;26906;45.658;9.272;2023-06-14T09:40:46;27.70;99.90
41168;DHT22;26906;45.658;9.272;2023-06-14T09:43:12;27.70;99.90
41168;DHT22;26906;45.658;9.272;2023-06-14T09:45:40;27.70;99.90
41168;DHT22;26906;45.658;9.272;2023-06-14T09:48:07;27.30;99.90
41168;DHT22;26906;45.658;9.272;2023-06-14T09:50:34;27.10;99.90
41168;DHT22;26906;45.658;9.272;2023-06-14T09:53:07;26.90;99.90
41168;DHT22;26906;45.658;9.272;2023-06-14T09:55:36;26.90;99.90
41168;DHT22;26906;45.658;9.272;2023-06-14T09:58:05;27.10;99.90
41168;DHT22;26906;45.658;9.272;2023-06-14T10:00:33;27.40;99.90
41168;DHT22;26906;45.658;9.272;2023-06-14T10:03:13;27.40;99.90
41168;DHT22;26906;45.658;9.272;2023-06-14T10:05:41;27.60;99.90
41168;DHT22;26906;45.658;9.272;2023-06-14T10:08:14;27.80;99.90
41168;DHT22;26906;45.658;9.272;2023-06-14T10:10:42;28.10;99.90
41168;DHT22;26906;45.658;9.272;2023-06-14T10:13:08;28.20;99.90
41168;DHT22;26906;45.658;9.272;2023-06-14T10:15:54;28.00;99.90
41168;DHT22;26906;45.658;9.272;2023-06-14T10:18:33;27.80;99.90
41168;DHT22;26906;45.658;9.272;2023-06-14T10:23:44;27.50;99.90
41168;DHT22;26906;45.658;9.272;2023-06-14T10:26:21;27.90;99.90
41168;DHT22;26906;45.658;9.272;2023-06-14T10:28:58;28.10;99.90
41168;DHT22;26906;45.658;9.272;2023-06-14T10:31:46;28.10;99.90
41168;DHT22;26906;45.658;9.272;2023-06-14T10:34:30;28.00;99.90
41168;DHT22;26906;45.658;9.272;2023-06-14T10:37:07;28.40;99.90
41168;DHT22;26906;45.658;9.272;2023-06-14T10:39:43;28.50;99.90
41168;DHT22;26906;45.658;9.272;2023-06-14T10:42:13;28.80;99.90
41168;DHT22;26906;45.658;9.272;2023-06-14T10:44:49;28.80;99.90
41168;DHT22;26906;45.658;9.272;2023-06-14T10:47:25;29.10;99.90
41168;DHT22;26906;45.658;9.272;2023-06-14T10:52:33;28.90;99.90
41168;DHT22;26906;45.658;9.272;2023-06-14T10:57:44;29.30;99.90
41168;DHT22;26906;45.658;9.272;2023-06-14T11:00:12;29.40;99.90
41168;DHT22;26906;45.658;9.272;2023-06-14T11:05:54;29.50;99.90
41168;DHT22;26906;45.658;9.272;2023-06-14T11:11:22;29.30;99.90
41168;DHT22;26906;45.658;9.272;2023-06-14T11:13:48;29.60;99.90
41168;DHT22;26906;45.658;9.272;2023-06-14T11:16:16;29.70;99.90
41168;DHT22;26906;45.658;9.272;2023-06-14T11:18:43;29.90;99.90
41168;DHT22;26906;45.658;9.272;2023-06-14T11:21:09;30.10;99.90
41168;DHT22;26906;45.658;9.272;2023-06-14T11:23:35;30.10;99.90
41168;DHT22;26906;45.658;9.272;2023-06-14T11:26:01;29.90;99.90
41168;DHT22;26906;45.658;9.272;2023-06-14T11:28:41;29.90;99.90
41168;DHT22;26906;45.658;9.272;2023-06-14T11:31:07;30.30;99.90
41168;DHT22;26906;45.658;9.272;2023-06-14T11:33:34;30.60;99.90
41168;DHT22;26906;45.658;9.272;2023-06-14T11:36:02;31.00;99.90
41168;DHT22;26906;45.658;9.272;2023-06-14T11:38:28;30.90;99.90
41168;DHT22;26906;45.658;9.272;2023-06-14T11:40:58;30.90;99.90
41168;DHT22;26906;45.658;9.272;2023-06-14T11:43:25;30.90;99.90
41168;DHT22;26906;45.658;9.272;2023-06-14T11:45:52;30.80;99.90
41168;DHT22;26906;45.658;9.272;2023-06-14T11:48:18;30.60;99.90
41168;DHT22;26906;45.658;9.272;2023-06-14T11:50:44;30.60;99.90
41168;DHT22;26906;45.658;9.272;2023-06-14T11:53:10;30.70;99.90
41168;DHT22;26906;45.658;9.272;2023-06-14T11:55:39;31.20;99.90
41168;DHT22;26906;45.658;9.272;2023-06-14T11:58:06;31.30;99.90
41168;DHT22;26906;45.658;9.272;2023-06-14T12:00:32;31.10;99.90
41168;DHT22;26906;45.658;9.272;2023-06-14T12:02:58;30.90;99.90
41168;DHT22;26906;45.658;9.272;2023-06-14T12:05:24;30.70;99.90
41168;DHT22;26906;45.658;9.272;2023-06-14T12:07:58;30.80;99.90
41168;DHT22;26906;45.658;9.272;2023-06-14T12:10:26;31.20;99.90
41168;DHT22;26906;45.658;9.272;2023-06-14T12:12:57;31.10;99.90
41168;DHT22;26906;45.658;9.272;2023-06-14T12:15:23;31.00;99.90
41168;DHT22;26906;45.658;9.272;2023-06-14T12:17:49;30.90;99.90
41168;DHT22;26906;45.658;9.272;2023-06-14T12:20:16;30.90;99.90
41168;DHT22;26906;45.658;9.272;2023-06-14T12:25:24;30.80;99.90
41168;DHT22;26906;45.658;9.272;2023-06-14T12:27:53;31.00;99.90
41168;DHT22;26906;45.658;9.272;2023-06-14T12:30:19;31.30;99.90
41168;DHT22;26906;45.658;9.272;2023-06-14T12:32:45;30.90;99.90
41168;DHT22;26906;45.658;9.272;2023-06-14T12:35:11;31.00;99.90
41168;DHT22;26906;45.658;9.272;2023-06-14T12:37:36;31.00;99.90
41168;DHT22;26906;45.658;9.272;2023-06-14T12:40:02;30.80;99.90
41168;DHT22;26906;45.658;9.272;2023-06-14T12:42:32;30.80;99.90
41168;DHT22;26906;45.658;9.272;2023-06-14T12:44:59;30.60;99.90
41168;DHT22;26906;45.658;9.272;2023-06-14T12:47:25;30.40;99.90
41168;DHT22;26906;45.658;9.272;2023-06-14T12:49:51;30.50;99.90
41168;DHT22;26906;45.658;9.272;2023-06-14T12:52:16;30.30;99.90
41168;DHT22;26906;45.658;9.272;2023-06-14T12:54:42;30.90;99.90
41168;DHT22;26906;45.658;9.272;2023-06-14T12:57:08;31.30;99.90
41168;DHT22;26906;45.658;9.272;2023-06-14T12:59:33;31.60;99.90
41168;DHT22;26906;45.658;9.272;2023-06-14T13:02:16;30.90;99.90
41168;DHT22;26906;45.658;9.272;2023-06-14T13:04:42;30.80;99.90
41168;DHT22;26906;45.658;9.272;2023-06-14T13:07:07;30.70;99.90
41168;DHT22;26906;45.658;9.272;2023-06-14T13:09:34;30.60;99.90
41168;DHT22;26906;45.658;9.272;2023-06-14T13:11:59;30.60;99.90
41168;DHT22;26906;45.658;9.272;2023-06-14T13:14:25;30.60;99.90
41168;DHT22;26906;45.658;9.272;2023-06-14T13:16:51;30.80;99.90
41168;DHT22;26906;45.658;9.272;2023-06-14T13:19:17;30.90;99.90
41168;DHT22;26906;45.658;9.272;2023-06-14T13:21:43;31.00;99.90
41168;DHT22;26906;45.658;9.272;2023-06-14T13:24:08;31.20;99.90
41168;DHT22;26906;45.658;9.272;2023-06-14T13:26:34;31.00;99.90
41168;DHT22;26906;45.658;9.272;2023-06-14T13:29:00;30.80;99.90
41168;DHT22;26906;45.658;9.272;2023-06-14T13:31:26;31.00;99.90
41168;DHT22;26906;45.658;9.272;2023-06-14T13:33:51;30.60;99.90
41168;DHT22;26906;45.658;9.272;2023-06-14T13:36:17;30.40;99.90
41168;DHT22;26906;45.658;9.272;2023-06-14T13:38:43;30.30;99.90
41168;DHT22;26906;45.658;9.272;2023-06-14T13:41:09;30.60;99.90
41168;DHT22;26906;45.658;9.272;2023-06-14T13:43:34;30.80;99.90
41168;DHT22;26906;45.658;9.272;2023-06-14T13:46:00;30.60;99.90
41168;DHT22;26906;45.658;9.272;2023-06-14T13:48:26;30.20;99.90
41168;DHT22;26906;45.658;9.272;2023-06-14T13:50:52;30.00;99.90
41168;DHT22;26906;45.658;9.272;2023-06-14T13:53:17;30.10;99.90
41168;DHT22;26906;45.658;9.272;2023-06-14T13:55:43;30.70;99.90
41168;DHT22;26906;45.658;9.272;2023-06-14T13:58:09;31.10;99.90
41168;DHT22;26906;45.658;9.272;2023-06-14T14:00:35;31.40;99.90
41168;DHT22;26906;45.658;9.272;2023-06-14T14:03:06;31.50;99.90
41168;DHT22;26906;45.658;9.272;2023-06-14T14:05:31;31.40;99.90
41168;DHT22;26906;45.658;9.272;2023-06-14T14:07:58;30.90;99.90
41168;DHT22;26906;45.658;9.272;2023-06-14T14:10:25;30.70;99.90
41168;DHT22;26906;45.658;9.272;2023-06-14T14:12:51;30.70;99.90
41168;DHT22;26906;45.658;9.272;2023-06-14T14:15:17;30.80;99.90
41168;DHT22;26906;45.658;9.272;2023-06-14T14:17:43;30.80;99.90
41168;DHT22;26906;45.658;9.272;2023-06-14T14:20:09;30.80;99.90
41168;DHT22;26906;45.658;9.272;2023-06-14T14:22:37;30.80;99.90
41168;DHT22;26906;45.658;9.272;2023-06-14T14:25:02;30.60;99.90
41168;DHT22;26906;45.658;9.272;2023-06-14T14:27:28;30.30;99.90
41168;DHT22;26906;45.658;9.272;2023-06-14T14:29:54;30.40;99.90
41168;DHT22;26906;45.658;9.272;2023-06-14T14:32:19;30.70;99.90
41168;DHT22;26906;45.658;9.272;2023-06-14T14:34:47;30.90;99.90
41168;DHT22;26906;45.658;9.272;2023-06-14T14:37:12;30.90;99.90
41168;DHT22;26906;45.658;9.272;2023-06-14T14:39:40;31.00;99.90
41168;DHT22;26906;45.658;9.272;2023-06-14T14:42:06;31.10;99.90
41168;DHT22;26906;45.658;9.272;2023-06-14T14:44:33;31.00;99.90
41168;DHT22;26906;45.658;9.272;2023-06-14T14:46:58;31.20;99.90
41168;DHT22;26906;45.658;9.272;2023-06-14T14:49:24;31.10;99.90
41168;DHT22;26906;45.658;9.272;2023-06-14T14:51:50;31.10;99.90
41168;DHT22;26906;45.658;9.272;2023-06-14T14:54:15;31.30;99.90
41168;DHT22;26906;45.658;9.272;2023-06-14T14:56:41;30.90;99.90
41168;DHT22;26906;45.658;9.272;2023-06-14T14:59:07;30.90;99.90
41168;DHT22;26906;45.658;9.272;2023-06-14T15:01:32;31.00;99.90
41168;DHT22;26906;45.658;9.272;2023-06-14T15:03:58;30.90;99.90
41168;DHT22;26906;45.658;9.272;2023-06-14T15:06:24;30.70;99.90
41168;DHT22;26906;45.658;9.272;2023-06-14T15:08:49;30.80;99.90
41168;DHT22;26906;45.658;9.272;2023-06-14T15:11:16;31.00;99.90
41168;DHT22;26906;45.658;9.272;2023-06-14T15:13:41;31.00;99.90
41168;DHT22;26906;45.658;9.272;2023-06-14T15:16:07;31.20;99.90
41168;DHT22;26906;45.658;9.272;2023-06-14T15:18:33;31.40;99.90
41168;DHT22;26906;45.658;9.272;2023-06-14T15:20:58;31.40;99.90
41168;DHT22;26906;45.658;9.272;2023-06-14T15:23:24;31.70;99.90
41168;DHT22;26906;45.658;9.272;2023-06-14T15:25:50;31.40;99.90
41168;DHT22;26906;45.658;9.272;2023-06-14T15:28:17;31.40;99.90
41168;DHT22;26906;45.658;9.272;2023-06-14T15:30:43;31.40;99.90
41168;DHT22;26906;45.658;9.272;2023-06-14T15:33:08;31.30;99.90
41168;DHT22;26906;45.658;9.272;2023-06-14T15:35:34;31.20;99.90
41168;DHT22;26906;45.658;9.272;2023-06-14T15:38:00;31.40;99.90
41168;DHT22;26906;45.658;9.272;2023-06-14T15:40:25;31.20;99.90
41168;DHT22;26906;45.658;9.272;2023-06-14T15:42:52;31.30;99.90
41168;DHT22;26906;45.658;9.272;2023-06-14T15:45:17;31.40;99.90
41168;DHT22;26906;45.658;9.272;2023-06-14T15:47:43;31.50;99.90
41168;DHT22;26906;45.658;9.272;2023-06-14T15:50:09;31.20;99.90
41168;DHT22;26906;45.658;9.272;2023-06-14T15:52:35;31.10;99.90
41168;DHT22;26906;45.658;9.272;2023-06-14T15:55:01;30.90;99.90
41168;DHT22;26906;45.658;9.272;2023-06-14T15:57:27;31.00;99.90
41168;DHT22;26906;45.658;9.272;2023-06-14T15:59:53;31.00;99.90
41168;DHT22;26906;45.658;9.272;2023-06-14T16:02:18;31.00;99.90
41168;DHT22;26906;45.658;9.272;2023-06-14T16:04:44;30.70;99.90
41168;DHT22;26906;45.658;9.272;2023-06-14T16:07:10;30.70;99.90
41168;DHT22;26906;45.658;9.272;2023-06-14T16:09:37;30.50;99.90
41168;DHT22;26906;45.658;9.272;2023-06-14T16:12:03;30.60;99.90
41168;DHT22;26906;45.658;9.272;2023-06-14T16:14:29;30.70;99.90
41168;DHT22;26906;45.658;9.272;2023-06-14T16:16:55;30.60;99.90
41168;DHT22;26906;45.658;9.272;2023-06-14T16:19:21;30.30;99.90
41168;DHT22;26906;45.658;9.272;2023-06-14T16:21:46;30.30;99.90
41168;DHT22;26906;45.658;9.272;2023-06-14T16:24:12;30.40;99.90
41168;DHT22;26906;45.658;9.272;2023-06-14T16:26:40;30.40;99.90
41168;DHT22;26906;45.658;9.272;2023-06-14T16:29:07;30.40;99.90
41168;DHT22;26906;45.658;9.272;2023-06-14T16:31:33;30.20;99.90
41168;DHT22;26906;45.658;9.272;2023-06-14T16:34:01;30.20;99.90
41168;DHT22;26906;45.658;9.272;2023-06-14T16:36:27;30.20;99.90
41168;DHT22;26906;45.658;9.272;2023-06-14T16:38:53;30.00;99.90
41168;DHT22;26906;45.658;9.272;2023-06-14T16:41:19;30.00;99.90
41168;DHT22;26906;45.658;9.272;2023-06-14T16:43:44;30.10;99.90
41168;DHT22;26906;45.658;9.272;2023-06-14T16:46:10;30.20;99.90
41168;DHT22;26906;45.658;9.272;2023-06-14T16:48:36;30.20;99.90
41168;DHT22;26906;45.658;9.272;2023-06-14T16:51:02;30.00;99.90
41168;DHT22;26906;45.658;9.272;2023-06-14T16:53:29;29.60;99.90
41168;DHT22;26906;45.658;9.272;2023-06-14T16:55:54;29.40;99.90
41168;DHT22;26906;45.658;9.272;2023-06-14T16:58:20;29.00;99.90
41168;DHT22;26906;45.658;9.272;2023-06-14T17:00:46;28.80;99.90
41168;DHT22;26906;45.658;9.272;2023-06-14T17:03:12;28.80;99.90
41168;DHT22;26906;45.658;9.272;2023-06-14T17:05:53;28.80;99.90
41168;DHT22;26906;45.658;9.272;2023-06-14T17:08:19;28.70;99.90
41168;DHT22;26906;45.658;9.272;2023-06-14T17:10:45;28.50;99.90
41168;DHT22;26906;45.658;9.272;2023-06-14T17:13:11;28.60;99.90
41168;DHT22;26906;45.658;9.272;2023-06-14T17:15:36;28.40;99.90
41168;DHT22;26906;45.658;9.272;2023-06-14T17:18:02;28.60;99.90
41168;DHT22;26906;45.658;9.272;2023-06-14T17:20:28;28.60;99.90
41168;DHT22;26906;45.658;9.272;2023-06-14T17:22:54;28.80;99.90
41168;DHT22;26906;45.658;9.272;2023-06-14T17:25:21;28.70;99.90
41168;DHT22;26906;45.658;9.272;2023-06-14T17:27:47;28.70;99.90
41168;DHT22;26906;45.658;9.272;2023-06-14T17:30:13;28.60;99.90
41168;DHT22;26906;45.658;9.272;2023-06-14T17:32:40;28.60;99.90
41168;DHT22;26906;45.658;9.272;2023-06-14T17:35:06;28.60;99.90
41168;DHT22;26906;45.658;9.272;2023-06-14T17:37:32;28.50;99.90
41168;DHT22;26906;45.658;9.272;2023-06-14T17:39:57;28.50;99.90
41168;DHT22;26906;45.658;9.272;2023-06-14T17:42:23;28.50;99.90
41168;DHT22;26906;45.658;9.272;2023-06-14T17:44:49;28.40;99.90
41168;DHT22;26906;45.658;9.272;2023-06-14T17:47:21;28.20;99.90
41168;DHT22;26906;45.658;9.272;2023-06-14T17:49:46;28.20;99.90
41168;DHT22;26906;45.658;9.272;2023-06-14T17:52:16;28.20;99.90
41168;DHT22;26906;45.658;9.272;2023-06-14T17:54:42;28.10;99.90
41168;DHT22;26906;45.658;9.272;2023-06-14T17:57:08;28.00;99.90
41168;DHT22;26906;45.658;9.272;2023-06-14T17:59:35;27.80;99.90
41168;DHT22;26906;45.658;9.272;2023-06-14T18:02:00;27.70;99.90
41168;DHT22;26906;45.658;9.272;2023-06-14T18:04:31;27.50;99.90
41168;DHT22;26906;45.658;9.272;2023-06-14T18:06:57;27.60;99.90
41168;DHT22;26906;45.658;9.272;2023-06-14T18:09:22;27.60;99.90
41168;DHT22;26906;45.658;9.272;2023-06-14T18:11:49;27.60;99.90
41168;DHT22;26906;45.658;9.272;2023-06-14T18:14:15;27.60;99.90
41168;DHT22;26906;45.658;9.272;2023-06-14T18:16:40;27.50;99.90
41168;DHT22;26906;45.658;9.272;2023-06-14T18:19:09;27.30;99.90
41168;DHT22;26906;45.658;9.272;2023-06-14T18:21:34;27.30;99.90
41168;DHT22;26906;45.658;9.272;2023-06-14T18:24:01;27.30;99.90
41168;DHT22;26906;45.658;9.272;2023-06-14T18:26:27;27.20;99.90
41168;DHT22;26906;45.658;9.272;2023-06-14T18:28:54;27.20;99.90
41168;DHT22;26906;45.658;9.272;2023-06-14T18:31:20;27.00;99.90
41168;DHT22;26906;45.658;9.272;2023-06-14T18:33:45;27.00;99.90
41168;DHT22;26906;45.658;9.272;2023-06-14T18:36:11;26.90;99.90
41168;DHT22;26906;45.658;9.272;2023-06-14T18:38:37;26.80;99.90
41168;DHT22;26906;45.658;9.272;2023-06-14T18:41:03;26.70;99.90
41168;DHT22;26906;45.658;9.272;2023-06-14T18:43:29;26.60;99.90
41168;DHT22;26906;45.658;9.272;2023-06-14T18:45:58;26.50;99.90
41168;DHT22;26906;45.658;9.272;2023-06-14T18:48:27;26.40;99.90
41168;DHT22;26906;45.658;9.272;2023-06-14T18:50:53;26.30;99.90
41168;DHT22;26906;45.658;9.272;2023-06-14T18:53:19;26.30;99.90
41168;DHT22;26906;45.658;9.272;2023-06-14T18:55:44;26.30;99.90
41168;DHT22;26906;45.658;9.272;2023-06-14T18:58:12;26.20;99.90
41168;DHT22;26906;45.658;9.272;2023-06-14T19:00:38;26.20;99.90
41168;DHT22;26906;45.658;9.272;2023-06-14T19:03:04;26.10;99.90
41168;DHT22;26906;45.658;9.272;2023-06-14T19:05:29;26.00;99.90
41168;DHT22;26906;45.658;9.272;2023-06-14T19:07:56;26.00;99.90
41168;DHT22;26906;45.658;9.272;2023-06-14T19:10:22;26.00;99.90
41168;DHT22;26906;45.658;9.272;2023-06-14T19:12:50;25.80;99.90
41168;DHT22;26906;45.658;9.272;2023-06-14T19:15:16;25.80;99.90
41168;DHT22;26906;45.658;9.272;2023-06-14T19:17:53;25.60;99.90
41168;DHT22;26906;45.658;9.272;2023-06-14T19:20:19;25.50;99.90
41168;DHT22;26906;45.658;9.272;2023-06-14T19:22:45;25.40;99.90
41168;DHT22;26906;45.658;9.272;2023-06-14T19:25:11;25.40;99.90
41168;DHT22;26906;45.658;9.272;2023-06-14T19:27:36;25.30;99.90
41168;DHT22;26906;45.658;9.272;2023-06-14T19:30:03;25.40;99.90
41168;DHT22;26906;45.658;9.272;2023-06-14T19:32:29;25.50;99.90
41168;DHT22;26906;45.658;9.272;2023-06-14T19:34:55;25.80;99.90
41168;DHT22;26906;45.658;9.272;2023-06-14T19:37:21;26.00;99.90
41168;DHT22;26906;45.658;9.272;2023-06-14T19:39:46;26.10;99.90
41168;DHT22;26906;45.658;9.272;2023-06-14T19:42:12;26.10;99.90
41168;DHT22;26906;45.658;9.272;2023-06-14T19:44:38;26.10;99.90
41168;DHT22;26906;45.658;9.272;2023-06-14T19:47:03;26.10;99.90
41168;DHT22;26906;45.658;9.272;2023-06-14T19:49:29;26.10;99.90
41168;DHT22;26906;45.658;9.272;2023-06-14T19:51:55;26.10;99.90
41168;DHT22;26906;45.658;9.272;2023-06-14T19:54:20;26.20;99.90
41168;DHT22;26906;45.658;9.272;2023-06-14T19:56:46;26.20;99.90
41168;DHT22;26906;45.658;9.272;2023-06-14T19:59:12;26.10;99.90
41168;DHT22;26906;45.658;9.272;2023-06-14T20:01:37;26.10;99.90
41168;DHT22;26906;45.658;9.272;2023-06-14T20:04:03;25.90;99.90
41168;DHT22;26906;45.658;9.272;2023-06-14T20:06:29;25.70;99.90
41168;DHT22;26906;45.658;9.272;2023-06-14T20:08:54;25.60;99.90
41168;DHT22;26906;45.658;9.272;2023-06-14T20:11:20;25.50;99.90
41168;DHT22;26906;45.658;9.272;2023-06-14T20:13:47;25.40;99.90
41168;DHT22;26906;45.658;9.272;2023-06-14T20:16:13;25.50;99.90
41168;DHT22;26906;45.658;9.272;2023-06-14T20:18:39;25.40;99.90
41168;DHT22;26906;45.658;9.272;2023-06-14T20:21:04;25.10;99.90
41168;DHT22;26906;45.658;9.272;2023-06-14T20:23:30;25.10;99.90
